TAF KELP
KELP 072344Z 0800/0824 26010G17KT P6SM SCT250 FM080300 24007KT P6SM FEW250 FM081900 24010KT P6SM BKN200=
METAR KELP
KELP 080251Z 07004KT 10SM CLR 13/M04 A3004 RMK AO2 SLP141 T01281039 51015 ?
KELP 080151Z 26005KT 10SM FEW250 16/M03 A3003 RMK AO2 SLP133 T01611033 ?
KELP 080051Z 22006KT 10SM FEW200 FEW250 16/M03 A3001 RMK AO2 SLP131 T01561033 ?
KELP 072351Z 25006KT 10SM FEW200 SCT250 18/M04 A2999 RMK AO2 SLP120 T01831044 10211 20172 53008 ?
KELP 072251Z 26008G18KT 10SM FEW200 SCT250 20/M05 A2997 RMK AO2 SLP114 T02001050 ?
WC KELP
WS KELP
WV KELP